AirNav   Duncan Aviation - Near you to keep you flying
 
 1673 users online  

KZER Schuylkill County/Joe Zerbey Airport
Pottsville, Pennsylvania, USA

GOING TO POTTSVILLE?


FAA INFORMATION EFFECTIVE 16 JUNE 2022

Location

FAA Identifier: ZER
Lat/Long: 40-42-24.3030N 076-22-25.5010W
40-42.405050N 076-22.425017W
40.7067508,-76.3737503
(estimated)
Elevation: 1729.8 ft. / 527.2 m (surveyed)
Variation: 12W (2000)
From city: 8 miles W of POTTSVILLE, PA
Time zone: UTC -4 (UTC -5 during Standard Time)
Zip code: 17921

Airport Operations

Airport use: Open to the public
Activation date: 10/1959
Control tower: no
ARTCC: NEW YORK CENTER
FSS: WILLIAMSPORT FLIGHT SERVICE STATION
NOTAMs facility: IPT (NOTAM-D service available)
Attendance: MON-FRI 0730-1700, ALL SAT - SUN ON CALL
FOR SVC AFTER HRS 570-617-6002.
Wind indicator: lighted
Segmented circle: no
Lights: ACTIVATE REIL RWY 11 & 29; MIRL RWY 11/29 - CTAF. PAPI RWY 11 & 29 ON CONTINUOUSLY.
Beacon: white-green (lighted land airport)
Operates sunset to sunrise.

Airport Communications

CTAF/UNICOM: 123.075
WX AWOS-3: 127.575 (570-544-2778)
HARRISBURG APPROACH: 118.25
HARRISBURG DEPARTURE: 118.25
WX AWOS-3 at N79 (11 nm NW): 119.175 (570-672-0389)
WX ASOS at MUI (19 nm SW): 124.175 (717-861-6493)
WX AWOS-3 at 79PN (19 nm NW): 118.075 (570-271-8192)

Nearby radio navigation aids

VOR radial/distance  VOR name  Freq  Var
RAVr059/13.8RAVINE VORTAC114.6011W
MIPr154/23.2MILTON VORTAC109.2009W
SEGr110/23.7SELINSGROVE VOR/DME110.4008W
ETXr293/32.3EAST TEXAS VOR/DME110.2009W
LRPr003/35.4LANCASTER VOR/DME117.3009W
HARr063/40.0HARRISBURG VORTAC112.5010W

 
NDB name  Hdg/Dist  Freq  Var  ID
BELLGROVE037/18.232810WBZJ -... --.. .---

Airport Services

Fuel available: 100LL JET-A
100LL:AVGAS SELF SERVE WITH CREDIT CARD.
A:JET-A SELF-SERVE WITH CREDIT CARD.
Parking: hangars and tiedowns
Airframe service: MINOR
Powerplant service: MINOR
Bottled oxygen: NONE
Bulk oxygen: NONE

Runway Information

Runway 11/29

Dimensions: 5101 x 75 ft. / 1555 x 23 m
Surface: asphalt, in good condition
Weight bearing capacity: 
Single wheel: 21.0
Runway edge lights: medium intensity
RUNWAY 11  RUNWAY 29
Latitude: 40-42.397243N40-42.282017N
Longitude: 076-23.128950W076-22.035662W
Elevation: 1729.7 ft.1706.5 ft.
Traffic pattern: leftleft
Runway heading: 110 magnetic, 098 true290 magnetic, 278 true
Markings: nonprecision, in good conditionnonprecision, in good condition
Visual slope indicator: 2-light PAPI on left (3.00 degrees glide path)2-light PAPI on left (3.00 degrees glide path)
Runway end identifier lights: yesyes
Touchdown point: yes, no lightsyes, no lights
Obstructions: 29 ft. trees, 482 ft. from runway, 535 ft. right of centerline, 9:1 slope to clear13 ft. trees, 223 ft. from runway, 356 ft. right of centerline, 1:1 slope to clear

Runway 4/22

Dimensions: 2523 x 140 ft. / 769 x 43 m
Surface: turf, in good condition
Runway edge markings: RY 04/22 EDGE & DSPLCD THLD MKD WITH ORANGE CONES.
Operational restrictions: NOT MAINTAINED WINTER MONTHS.
RUNWAY 4  RUNWAY 22
Latitude: 40-42.360003N40-42.714500N
Longitude: 076-22.249335W076-21.964673W
Elevation: 1708.1 ft.1718.4 ft.
Traffic pattern: leftleft
Runway heading: 043 magnetic, 031 true223 magnetic, 211 true
Displaced threshold: no200 ft.
Markings: none, in poor conditionnone, in poor condition
Touchdown point: yes, no lightsyes, no lights
Obstructions: none28 ft. trees, 360 ft. from runway, 124 ft. right of centerline, 12:1 slope to clear
APCH RATIO 20:1 TO DTHR.

Airport Ownership and Management from official FAA records

Ownership: Publicly-owned
Owner: SCHUYLKILL COUNTY A/P AUTH
240 AIRPORT ROAD
POTTSVILLE, PA 17901
Phone 570-544-6002
Manager: BILL WILLARD
240 AIRPORT ROAD
POTTSVILLE, PA 17901
Phone (570) 617-6002

Airport Operational Statistics

Aircraft based on the field: 18
Single engine airplanes: 16
Jet airplanes: 2
    
Aircraft operations: avg 77/day *
45% local general aviation
31% transient general aviation
22% military
2% air taxi
* for 12-month period ending 10 March 2022

Additional Remarks

DEER ON & INVOF ARPT.
FOR CD CTC HARRISBURG APCH AT 800-932-0712.
GPU AVAILABLE FOR AC/DC POWER.

Instrument Procedures

NOTE: All procedures below are presented as PDF files. If you need a reader for these files, you should download the free Adobe Reader.

NOT FOR NAVIGATION. Please procure official charts for flight.
FAA instrument procedures published for use from 16 June 2022 at 0901Z to 14 July 2022 at 0900z.

 
IAPs - Instrument Approach Procedures
RNAV (GPS) RWY 11   download (236KB)
RNAV (GPS) RWY 29   download (249KB)
VOR-A   download (181KB)
NOTE: Special Take-Off Minimums/Departure Procedures apply   download (428KB)

Other nearby airports with instrument procedures:

N79 - Northumberland County Airport (11 nm NW)
74N - Bendigo Airport (12 nm SW)
N13 - Bloomsburg Municipal Airport (18 nm N)
KMUI - Muir Army Airfield (Fort Indiantown Gap) (19 nm SW)
8N8 - Danville Airport (19 nm NW)
 
Loc | Ops | Rwys | IFR | FBO | Links
Com | Nav | Svcs | Stats | Notes
Area around KZER (Schuylkill County/Joe Zerbey Airport)
 
Road maps at: MapQuest Bing Google
 
Aerial photo
WARNING: Photo may not be current or correct
Aerial photo of KZER (Schuylkill County/Joe Zerbey Airport)
Photo by David Newcomer
Photo taken 03-Feb-2017
looking northeast from 4,000 altitude.

Do you have a better or more recent aerial photo of Schuylkill County/Joe Zerbey Airport that you would like to share? If so, please send us your photo.

 
Sectional chart

 
Airport distance calculator
Flying to Schuylkill County/Joe Zerbey Airport? Find the distance to fly.

From to KZER

Sunrise and sunset
Times for 07-Jul-2022
 Local
(UTC-4)
 Zulu
(UTC)
Morning civil twilight05:1009:10
Sunrise05:4209:42
Sunset20:3800:38
Evening civil twilight21:1101:11

Current date and time
Zulu (UTC)  07-Jul-2022 14:59:53
Local (UTC-4)  07-Jul-2022 10:59:53
 
METAR
KMUI 
20nm SW 
071356Z 06006KT 10SM BKN020 24/18 A2998 RMK AO2A SLP152 T02420179
KSEG 
23nm W 
071453Z AUTO 00000KT 10SM CLR 27/18 A3000 RMK AO2 SLP154 T02670178 58001
KHZL 
24nm NE 
071435Z AUTO 09004KT 10SM SCT021 23/17 A3007 RMK AO2
KRDG 
28nm SE 
071454Z VRB03KT 10SM OVC032 26/19 A2998 RMK AO2 SLP155 T02560194 51001
K22N 
29nm E 
071435Z AUTO 10004KT 10SM OVC026 24/17 A3001 RMK AO2
KMDT 
35nm SW 
071425Z VRB03KT 10SM BKN016 BKN022 BKN075 24/18 A2998 RMK AO2 T02440183
KLNS 
36nm S 
071453Z 07004KT 10SM SCT015 BKN022 OVC075 25/20 A2999 RMK AO2 SLP152 T02500200 51003
KCXY 
37nm SW 
071356Z 08003KT 10SM SCT010 BKN070 25/19 A2999 RMK AO2 SLP153 T02500194
TAF
KMUI 
20nm SW 
071100Z 0711/0817 08006KT 9999 BKN050 QNH2996INS BECMG 0713/0714 08006KT 9999 -SHRA BKN040 QNH2993INS TEMPO 0812/0815 24015G25KT 9000 -TSRA BKN020CB BECMG 0815/0816 25006KT 9999 NSW SCT030 QNH3000INS TX26/0719Z TN19/0807Z
NOTAMs
Click for the latest NOTAMs
NOTAMs are issued by the DoD/FAA and will open in a separate window not controlled by AirNav.

 

 
 

FBO, Fuel Providers, and Aircraft Ground Support

  
 Business Name 
 
 Contact 
 
 Services / Description 
 
Fuel Prices
 
Comments
  
Schuylkill County Airport 570-544-6002
no information available

If you are affiliated with Schuylkill County Airport and would like to show here your services, contact info, web link, logo, and more, click here
100LL Jet A
FS $8.12 $7.83 
SS $7.92 $7.71 
 Updated 21-Jun-2022
 
   1 read write
FS=Full service
SS=Self service
Update Fuel Prices
 

Would you like to see your business listed on this page?

 If your business provides an interesting product or service to pilots, flight crews, aircraft, or users of the Schuylkill County/Joe Zerbey Airport, you should consider listing it here.  To start the listing process, click on the button below
 
Add a business
 

Other Pages about Schuylkill County/Joe Zerbey Airport

Update a link
 
Copyright © AirNav, LLC. All rights reserved. Privacy Policy  Contact